createdAt,value
2019-02-19T00:01:08.746Z,2.00
2019-02-19T00:03:38.485Z,2.00
2019-02-19T00:06:08.180Z,2.00
2019-02-19T00:08:37.888Z,2.10
2019-02-19T00:11:07.623Z,1.90
2019-02-19T00:13:37.343Z,1.90
2019-02-19T00:16:07.152Z,1.80
2019-02-19T00:18:36.847Z,1.80
2019-02-19T00:21:06.615Z,1.80
2019-02-19T00:23:36.290Z,1.90
2019-02-19T00:26:14.070Z,1.90
2019-02-19T00:28:44.778Z,1.90
2019-02-19T00:31:14.449Z,2.00
2019-02-19T00:33:44.167Z,1.90
2019-02-19T00:36:14.429Z,1.80
2019-02-19T00:38:44.125Z,1.90
2019-02-19T00:41:13.806Z,1.90
2019-02-19T00:43:43.507Z,1.80
2019-02-19T00:46:13.155Z,1.90
2019-02-19T00:48:42.874Z,1.90
2019-02-19T00:51:12.577Z,1.80
2019-02-19T00:53:42.259Z,1.80
2019-02-19T00:56:14.751Z,1.90
2019-02-19T00:58:44.413Z,1.80
2019-02-19T01:01:14.106Z,1.90
2019-02-19T01:03:43.844Z,1.80
2019-02-19T01:06:13.593Z,1.80
2019-02-19T01:08:43.244Z,1.80
2019-02-19T01:11:15.706Z,1.70
2019-02-19T01:13:45.382Z,1.80
2019-02-19T01:16:15.077Z,1.80
2019-02-19T01:18:44.745Z,1.80
2019-02-19T01:21:14.454Z,1.70
2019-02-19T01:23:44.167Z,1.70
2019-02-19T01:26:13.899Z,1.60
2019-02-19T01:28:43.605Z,1.60
2019-02-19T01:31:13.700Z,1.60
2019-02-19T01:33:43.395Z,1.60
2019-02-19T01:36:14.043Z,1.60
2019-02-19T01:38:43.771Z,1.50
2019-02-19T01:41:16.505Z,1.50
2019-02-19T01:43:46.167Z,1.50
2019-02-19T01:46:15.921Z,1.40
2019-02-19T01:48:45.568Z,1.40
2019-02-19T01:51:15.326Z,1.40
2019-02-19T01:53:45.013Z,1.30
2019-02-19T01:56:17.894Z,1.40
2019-02-19T01:58:47.578Z,1.40
2019-02-19T02:01:17.290Z,1.30
2019-02-19T02:03:46.999Z,1.30
2019-02-19T02:06:16.688Z,1.30
2019-02-19T02:08:46.418Z,1.30
2019-02-19T02:11:16.218Z,1.20
2019-02-19T02:13:45.901Z,1.10
2019-02-19T02:16:15.643Z,1.10
2019-02-19T02:18:45.331Z,1.00
2019-02-19T02:21:14.982Z,1.00
2019-02-19T02:23:44.714Z,1.00
2019-02-19T02:26:14.367Z,1.00
2019-02-19T02:28:44.066Z,0.90
2019-02-19T02:31:13.772Z,0.90
2019-02-19T02:33:43.424Z,1.00
2019-02-19T02:36:13.114Z,0.90
2019-02-19T02:38:42.771Z,0.90
2019-02-19T02:41:12.447Z,0.90
2019-02-19T02:43:42.138Z,0.90
2019-02-19T02:46:12.694Z,0.90
2019-02-19T02:48:42.366Z,0.80
2019-02-19T02:51:12.058Z,0.80
2019-02-19T02:53:41.726Z,0.80
2019-02-19T02:56:11.440Z,0.80
2019-02-19T02:58:41.131Z,0.80
2019-02-19T03:01:11.071Z,0.70
2019-02-19T03:03:40.863Z,0.70
2019-02-19T03:06:22.197Z,0.70
2019-02-19T03:08:51.967Z,0.70
2019-02-19T03:11:24.480Z,0.60
2019-02-19T03:13:54.188Z,0.60
2019-02-19T03:16:25.644Z,0.60
2019-02-19T03:18:55.332Z,0.60
2019-02-19T03:21:25.022Z,0.50
2019-02-19T03:23:54.727Z,0.50
2019-02-19T03:26:25.903Z,0.50
2019-02-19T03:28:55.758Z,0.40
2019-02-19T03:31:28.175Z,0.40
2019-02-19T03:33:57.857Z,0.40
2019-02-19T03:36:27.499Z,0.30
2019-02-19T03:38:57.677Z,0.30
2019-02-19T03:41:27.855Z,0.20
2019-02-19T03:43:57.571Z,0.20
2019-02-19T03:46:27.245Z,0.20
2019-02-19T03:48:56.898Z,0.20
2019-02-19T03:51:26.789Z,0.10
2019-02-19T03:53:57.301Z,0.10
2019-02-19T03:56:27.110Z,0.10
2019-02-19T03:58:56.937Z,0.20
2019-02-19T04:01:26.683Z,0.20
2019-02-19T04:03:56.339Z,0.20
2019-02-19T04:06:29.038Z,0.20
2019-02-19T04:08:58.721Z,0.30
2019-02-19T04:11:31.425Z,0.30
2019-02-19T04:14:01.123Z,0.20
2019-02-19T04:16:30.779Z,0.20
2019-02-19T04:19:00.490Z,0.20
2019-02-19T04:21:30.142Z,0.20
2019-02-19T04:24:00.126Z,0.20
2019-02-19T04:26:29.905Z,0.20
2019-02-19T04:28:59.643Z,0.20
2019-02-19T04:31:29.442Z,0.20
2019-02-19T04:33:59.134Z,0.20
2019-02-19T04:36:31.539Z,0.20
2019-02-19T04:39:01.566Z,0.20
2019-02-19T04:41:34.103Z,0.10
2019-02-19T04:44:03.758Z,0.10
2019-02-19T04:46:33.439Z,0.00
2019-02-19T04:49:03.176Z,0.00
2019-02-19T04:51:32.889Z,-0.10
2019-02-19T04:54:02.561Z,-0.10
2019-02-19T04:56:34.011Z,-0.10
2019-02-19T04:59:03.708Z,-0.10
2019-02-19T05:01:33.373Z,-0.10
2019-02-19T05:04:03.138Z,-0.10
2019-02-19T05:06:33.007Z,-0.10
2019-02-19T05:09:02.637Z,-0.10
2019-02-19T05:11:32.430Z,-0.10
2019-02-19T05:14:02.106Z,-0.10
2019-02-19T05:16:40.757Z,-0.10
2019-02-19T05:19:05.994Z,-0.10
2019-02-19T05:21:35.644Z,-0.10
2019-02-19T05:24:05.433Z,-0.10
2019-02-19T05:26:35.069Z,-0.20
2019-02-19T05:29:05.270Z,-0.20
2019-02-19T05:31:37.803Z,-0.20
2019-02-19T05:34:07.455Z,-0.20
2019-02-19T05:36:37.205Z,-0.30
2019-02-19T05:39:07.234Z,-0.30
2019-02-19T05:41:36.867Z,-0.20
2019-02-19T05:44:06.595Z,-0.20
2019-02-19T05:46:36.335Z,-0.10
2019-02-19T05:49:05.990Z,-0.20
2019-02-19T05:51:38.875Z,-0.30
2019-02-19T05:54:08.974Z,-0.30
2019-02-19T05:56:38.674Z,-0.20
2019-02-19T05:59:08.410Z,-0.30
2019-02-19T06:01:42.865Z,-0.30
2019-02-19T06:04:12.577Z,-0.30
2019-02-19T06:06:42.821Z,-0.30
2019-02-19T06:09:12.513Z,-0.30
2019-02-19T06:11:42.246Z,-0.20
2019-02-19T06:14:11.910Z,-0.20
2019-02-19T06:16:41.578Z,-0.10
2019-02-19T06:19:11.282Z,-0.10
2019-02-19T06:21:40.937Z,-0.10
2019-02-19T06:24:10.623Z,-0.10
2019-02-19T06:26:40.831Z,0.00
2019-02-19T06:29:10.697Z,-0.10
2019-02-19T06:31:42.865Z,0.00
2019-02-19T06:34:14.262Z,0.10
2019-02-19T06:36:43.900Z,0.10
2019-02-19T06:39:13.591Z,0.10
2019-02-19T06:41:43.341Z,0.10
2019-02-19T06:44:13.234Z,0.20
2019-02-19T06:46:46.148Z,0.30
2019-02-19T06:49:15.851Z,0.30
2019-02-19T06:51:45.505Z,0.30
2019-02-19T06:54:15.219Z,0.40
2019-02-19T06:56:44.903Z,0.40
2019-02-19T06:59:14.633Z,0.60
2019-02-19T07:02:12.313Z,0.60
2019-02-19T07:04:48.007Z,0.60
2019-02-19T07:07:17.680Z,0.70
2019-02-19T07:09:47.391Z,0.80
2019-02-19T07:12:17.210Z,0.80
2019-02-19T07:14:46.929Z,0.90
2019-02-19T07:17:16.653Z,1.00
2019-02-19T07:19:46.370Z,1.10
2019-02-19T07:22:16.026Z,1.10
2019-02-19T07:24:45.688Z,1.20
2019-02-19T07:27:15.405Z,1.20
2019-02-19T07:29:45.198Z,1.30
2019-02-19T07:32:14.864Z,1.40
2019-02-19T07:34:45.651Z,1.50
2019-02-19T07:37:15.300Z,1.50
2019-02-19T07:39:45.126Z,1.70
2019-02-19T07:42:14.791Z,1.80
2019-02-19T07:44:46.157Z,1.90
2019-02-19T07:47:24.236Z,1.90
2019-02-19T07:49:47.247Z,2.00
2019-02-19T07:52:17.013Z,2.10
2019-02-19T07:54:47.954Z,2.20
2019-02-19T07:57:17.689Z,2.30
2019-02-19T07:59:47.493Z,2.40
2019-02-19T08:02:17.211Z,2.60
2019-02-19T08:04:47.049Z,2.70
2019-02-19T08:07:16.806Z,2.70
2019-02-19T08:09:46.742Z,2.90
2019-02-19T08:12:16.433Z,2.90
2019-02-19T08:14:49.556Z,3.00
2019-02-19T08:17:19.214Z,3.10
2019-02-19T08:19:49.357Z,3.20
2019-02-19T08:22:19.064Z,3.30
2019-02-19T08:24:48.789Z,3.30
2019-02-19T08:27:18.467Z,3.50
2019-02-19T08:29:48.521Z,3.50
2019-02-19T08:32:18.174Z,3.70
2019-02-19T08:34:47.943Z,3.80
2019-02-19T08:37:17.647Z,3.90
2019-02-19T08:39:47.399Z,4.00
2019-02-19T08:42:17.093Z,4.10
2019-02-19T08:44:46.779Z,4.30
2019-02-19T08:47:16.513Z,4.40
2019-02-19T08:49:46.283Z,4.60
2019-02-19T08:52:16.058Z,4.70
2019-02-19T08:54:46.895Z,4.90
2019-02-19T08:57:16.589Z,5.00
2019-02-19T08:59:46.318Z,5.10
2019-02-19T09:02:16.042Z,5.30
2019-02-19T09:04:45.789Z,5.40
2019-02-19T09:07:15.500Z,5.50
2019-02-19T09:09:45.211Z,5.70
2019-02-19T09:12:18.693Z,5.80
2019-02-19T09:14:49.465Z,6.00
2019-02-19T09:17:19.164Z,6.10
2019-02-19T09:19:48.875Z,6.20
2019-02-19T09:22:18.668Z,6.30
2019-02-19T09:24:48.491Z,6.40
2019-02-19T09:27:18.145Z,6.50
2019-02-19T09:29:47.875Z,6.60
2019-02-19T09:32:17.585Z,6.80
2019-02-19T09:34:47.266Z,6.90
2019-02-19T09:37:16.933Z,7.00
2019-02-19T09:39:46.661Z,7.20
2019-02-19T09:42:16.420Z,7.40
2019-02-19T09:44:46.159Z,7.40
2019-02-19T09:47:15.866Z,7.60
2019-02-19T09:49:45.591Z,7.80
2019-02-19T09:52:15.308Z,8.00
2019-02-19T09:54:45.697Z,8.10
2019-02-19T09:57:15.463Z,8.20
2019-02-19T09:59:45.128Z,8.20
2019-02-19T10:02:14.826Z,8.30
2019-02-19T10:04:44.551Z,8.50
2019-02-19T10:07:14.264Z,8.80
2019-02-19T10:09:44.547Z,9.00
2019-02-19T10:12:14.355Z,9.20
2019-02-19T10:14:44.035Z,9.40
2019-02-19T10:17:13.826Z,9.60
2019-02-19T10:19:43.487Z,9.70
2019-02-19T10:22:13.180Z,9.80
2019-02-19T10:24:42.853Z,10.00
2019-02-19T10:27:12.644Z,10.20
2019-02-19T10:29:42.327Z,10.30
2019-02-19T10:32:12.104Z,10.50
2019-02-19T10:34:41.809Z,10.60
2019-02-19T10:37:11.509Z,10.70
2019-02-19T10:39:41.282Z,10.90
2019-02-19T10:42:10.951Z,11.00
2019-02-19T10:44:40.679Z,11.10
2019-02-19T10:47:10.387Z,11.20
2019-02-19T10:49:40.069Z,11.30
2019-02-19T10:52:09.779Z,11.30
2019-02-19T10:54:39.457Z,11.50
2019-02-19T10:57:09.162Z,11.60
2019-02-19T10:59:38.850Z,11.60
2019-02-19T11:02:08.539Z,11.70
2019-02-19T11:04:39.996Z,11.70
2019-02-19T11:07:09.833Z,11.80
2019-02-19T11:09:39.510Z,11.90
2019-02-19T11:12:09.261Z,11.90
2019-02-19T11:14:38.947Z,12.00
2019-02-19T11:17:08.651Z,12.10
2019-02-19T11:19:38.363Z,12.10
2019-02-19T11:22:08.100Z,12.20
2019-02-19T11:24:37.858Z,12.20
2019-02-19T11:27:07.655Z,12.20
2019-02-19T11:29:37.349Z,12.30
2019-02-19T11:32:07.136Z,12.30
2019-02-19T11:34:36.861Z,12.40
2019-02-19T11:37:06.646Z,12.50
2019-02-19T11:39:36.432Z,12.50
2019-02-19T11:42:06.257Z,12.50
2019-02-19T11:44:36.069Z,12.50
2019-02-19T11:47:05.932Z,12.50
2019-02-19T11:49:35.682Z,12.50
2019-02-19T11:52:05.561Z,12.60
2019-02-19T11:54:35.305Z,12.60
2019-02-19T11:57:05.139Z,12.60
2019-02-19T11:59:37.494Z,12.60
2019-02-19T12:02:12.253Z,12.50
2019-02-19T12:04:41.971Z,12.60
2019-02-19T12:07:11.727Z,12.60
2019-02-19T12:09:41.470Z,12.60
2019-02-19T12:12:11.159Z,12.60
2019-02-19T12:14:40.868Z,12.60
2019-02-19T12:17:11.562Z,12.60
2019-02-19T12:19:41.262Z,12.70
2019-02-19T12:22:10.918Z,12.70
2019-02-19T12:24:40.838Z,12.80
2019-02-19T12:27:11.218Z,12.70
2019-02-19T12:29:41.100Z,12.80
2019-02-19T12:32:10.795Z,12.80
2019-02-19T12:34:42.056Z,12.90
2019-02-19T12:37:12.247Z,13.00
2019-02-19T12:39:42.003Z,13.10
2019-02-19T12:42:11.801Z,13.10
2019-02-19T12:44:41.497Z,13.20
2019-02-19T12:47:11.219Z,13.20
2019-02-19T12:49:42.316Z,13.30
2019-02-19T12:52:12.098Z,13.30
2019-02-19T12:54:41.839Z,13.30
2019-02-19T12:57:11.595Z,13.40
2019-02-19T12:59:41.847Z,13.30
2019-02-19T13:02:11.615Z,13.40
2019-02-19T13:04:41.566Z,13.40
2019-02-19T13:07:11.283Z,13.30
2019-02-19T13:09:40.938Z,13.40
2019-02-19T13:12:10.694Z,13.40
2019-02-19T13:14:41.354Z,13.50
2019-02-19T13:17:12.743Z,13.40
2019-02-19T13:19:42.460Z,13.40
2019-02-19T13:22:54.275Z,13.40
2019-02-19T13:25:23.927Z,13.40
2019-02-19T13:27:53.681Z,13.40
2019-02-19T13:30:23.498Z,13.40
2019-02-19T13:32:53.206Z,13.40
2019-02-19T13:35:22.896Z,13.40
2019-02-19T13:37:52.699Z,13.30
2019-02-19T13:40:22.382Z,13.20
2019-02-19T13:42:52.081Z,13.20
2019-02-19T13:45:21.980Z,13.10
2019-02-19T13:47:51.705Z,13.10
2019-02-19T13:50:21.861Z,13.10
2019-02-19T13:53:16.282Z,13.00
2019-02-19T13:55:51.811Z,13.00
2019-02-19T13:58:21.523Z,13.00
2019-02-19T14:00:51.234Z,13.00
2019-02-19T14:03:20.952Z,13.00
2019-02-19T14:05:50.680Z,13.00
2019-02-19T14:08:21.261Z,12.90
2019-02-19T14:10:50.969Z,12.90
2019-02-19T14:13:20.648Z,12.90
2019-02-19T14:16:16.026Z,12.80
2019-02-19T14:18:51.455Z,12.80
2019-02-19T14:21:38.784Z,12.70
2019-02-19T14:24:22.390Z,12.70
2019-02-19T14:27:17.142Z,12.50
2019-02-19T14:30:05.809Z,12.40
2019-02-19T14:33:06.422Z,12.30
2019-02-19T14:35:55.405Z,12.20
2019-02-19T14:38:50.055Z,12.20
2019-02-19T14:41:48.851Z,12.10
2019-02-19T14:44:40.152Z,12.10
2019-02-19T14:47:34.878Z,12.00
2019-02-19T14:50:24.741Z,11.90
2019-02-19T14:53:19.177Z,11.80
2019-02-19T14:56:13.780Z,11.70
2019-02-19T14:59:20.461Z,11.70
2019-02-19T15:02:15.349Z,11.60
2019-02-19T15:05:06.867Z,11.50
2019-02-19T15:08:10.605Z,11.40
2019-02-19T15:11:01.889Z,11.40
2019-02-19T15:13:51.453Z,11.40
2019-02-19T15:16:42.809Z,11.30
2019-02-19T15:19:39.270Z,11.20
2019-02-19T15:22:26.885Z,11.10
2019-02-19T15:25:24.091Z,11.10
2019-02-19T15:28:12.845Z,11.00
2019-02-19T15:31:04.458Z,10.90
2019-02-19T15:33:53.040Z,10.80
2019-02-19T15:36:40.206Z,10.70
2019-02-19T15:39:27.340Z,10.60
2019-02-19T15:42:24.416Z,10.50
2019-02-19T15:45:18.849Z,10.40
2019-02-19T15:48:17.396Z,10.30
2019-02-19T15:51:07.866Z,10.00
2019-02-19T15:54:02.685Z,9.90
2019-02-19T15:57:06.191Z,9.80
2019-02-19T15:59:57.879Z,9.70
2019-02-19T16:02:46.513Z,9.60
2019-02-19T16:05:37.677Z,9.50
2019-02-19T16:08:26.358Z,9.40
2019-02-19T16:11:17.494Z,9.30
2019-02-19T16:14:02.293Z,9.20
2019-02-19T16:16:43.916Z,9.10
2019-02-19T16:19:28.117Z,9.00
2019-02-19T16:22:28.743Z,8.90
2019-02-19T16:25:26.195Z,8.80
2019-02-19T16:28:17.159Z,8.80
2019-02-19T16:30:59.048Z,8.80
2019-02-19T16:33:56.426Z,8.60
2019-02-19T16:36:39.829Z,8.70
2019-02-19T16:39:27.028Z,8.60
2019-02-19T16:42:12.541Z,8.50
2019-02-19T16:45:07.974Z,8.50
2019-02-19T16:47:47.438Z,8.50
2019-02-19T16:50:29.936Z,8.40
2019-02-19T16:53:21.473Z,8.30
2019-02-19T16:56:21.961Z,8.30
2019-02-19T16:59:06.936Z,8.30
2019-02-19T17:01:48.411Z,8.30
2019-02-19T17:04:34.385Z,8.40
2019-02-19T17:07:12.704Z,8.40
2019-02-19T17:09:52.447Z,8.40
2019-02-19T17:12:49.615Z,8.40
2019-02-19T17:15:44.683Z,8.40
2019-02-19T17:18:36.438Z,8.30
2019-02-19T17:21:17.056Z,8.30
2019-02-19T17:24:05.167Z,8.40
2019-02-19T17:26:52.271Z,8.30
2019-02-19T17:29:37.334Z,8.40
2019-02-19T17:32:24.611Z,8.40
2019-02-19T17:35:04.954Z,8.40
2019-02-19T17:37:52.042Z,8.40
2019-02-19T17:40:52.890Z,8.40
2019-02-19T17:43:28.635Z,8.30
2019-02-19T17:46:12.166Z,8.40
2019-02-19T17:48:59.577Z,8.40
2019-02-19T17:51:40.458Z,8.50
2019-02-19T17:54:37.915Z,8.50
2019-02-19T17:57:17.805Z,8.60
2019-02-19T18:00:18.581Z,8.70
2019-02-19T18:03:02.835Z,8.60
2019-02-19T18:05:50.017Z,8.70
2019-02-19T18:08:27.611Z,8.70
2019-02-19T18:11:31.226Z,8.70
2019-02-19T18:14:26.410Z,8.80
2019-02-19T18:17:05.111Z,8.90
2019-02-19T18:19:34.775Z,9.00
2019-02-19T18:22:04.466Z,9.00
2019-02-19T18:24:34.257Z,9.00
2019-02-19T18:27:04.079Z,9.00
2019-02-19T18:29:33.824Z,8.90
2019-02-19T18:32:03.515Z,9.00
2019-02-19T18:34:33.322Z,9.00
2019-02-19T18:37:03.627Z,9.00
2019-02-19T18:39:33.529Z,9.10
2019-02-19T18:42:03.290Z,9.20
2019-02-19T18:44:33.078Z,9.10
2019-02-19T18:47:02.824Z,9.20
2019-02-19T18:49:35.249Z,9.20
2019-02-19T18:52:04.962Z,9.20
2019-02-19T18:54:34.675Z,9.10
2019-02-19T18:57:04.411Z,9.10
2019-02-19T18:59:34.147Z,9.10
2019-02-19T19:02:03.821Z,9.10
2019-02-19T19:04:33.550Z,9.10
2019-02-19T19:07:03.277Z,9.10
2019-02-19T19:09:32.966Z,9.10
2019-02-19T19:12:02.722Z,9.00
2019-02-19T19:14:32.481Z,9.00
2019-02-19T19:17:02.165Z,9.00
2019-02-19T19:19:31.922Z,9.00
2019-02-19T19:22:01.629Z,9.00
2019-02-19T19:24:31.291Z,9.00
2019-02-19T19:27:01.003Z,9.00
2019-02-19T19:29:30.681Z,9.00
2019-02-19T19:32:00.443Z,9.00
2019-02-19T19:34:30.346Z,9.00
2019-02-19T19:37:01.299Z,8.90
2019-02-19T19:39:31.089Z,8.90
2019-02-19T19:42:00.775Z,8.80
2019-02-19T19:44:30.497Z,8.70
2019-02-19T19:47:00.188Z,8.70
2019-02-19T19:49:29.844Z,8.70
2019-02-19T19:51:59.511Z,8.60
2019-02-19T19:54:29.196Z,8.60
2019-02-19T19:56:58.869Z,8.60
2019-02-19T19:59:28.575Z,8.60
2019-02-19T20:01:58.507Z,8.50
2019-02-19T20:04:28.224Z,8.50
2019-02-19T20:06:57.972Z,8.50
2019-02-19T20:09:27.709Z,8.50
2019-02-19T20:11:57.525Z,8.40
2019-02-19T20:14:28.718Z,8.30
2019-02-19T20:16:58.414Z,8.30
2019-02-19T20:19:28.073Z,8.30
2019-02-19T20:21:57.721Z,8.20
2019-02-19T20:24:27.422Z,8.20
2019-02-19T20:26:57.066Z,8.20
2019-02-19T20:29:26.862Z,8.20
2019-02-19T20:31:56.527Z,8.10
2019-02-19T20:34:26.213Z,8.10
2019-02-19T20:36:55.923Z,8.20
2019-02-19T20:39:25.653Z,8.10
2019-02-19T20:41:55.339Z,8.10
2019-02-19T20:44:25.006Z,8.20
2019-02-19T20:46:54.736Z,8.20
2019-02-19T20:49:24.410Z,8.10
2019-02-19T20:51:54.127Z,8.10
2019-02-19T20:54:23.835Z,8.10
2019-02-19T20:56:53.555Z,8.10
2019-02-19T20:59:23.230Z,8.00
2019-02-19T21:01:52.933Z,8.00
2019-02-19T21:04:22.698Z,8.00
2019-02-19T21:06:54.519Z,8.00
2019-02-19T21:09:24.503Z,8.10
2019-02-19T21:11:54.229Z,8.10
2019-02-19T21:14:23.943Z,8.10
2019-02-19T21:16:53.665Z,8.10
2019-02-19T21:19:23.392Z,8.00
2019-02-19T21:21:53.093Z,8.00
2019-02-19T21:24:22.855Z,7.90
2019-02-19T21:26:52.574Z,7.80
2019-02-19T21:29:22.575Z,7.70
2019-02-19T21:31:52.251Z,7.60
2019-02-19T21:34:22.048Z,7.50
2019-02-19T21:36:51.812Z,7.30
2019-02-19T21:39:21.521Z,7.20
2019-02-19T21:41:51.207Z,7.00
2019-02-19T21:44:20.970Z,6.80
2019-02-19T21:46:50.757Z,6.70
2019-02-19T21:49:20.417Z,6.60
2019-02-19T21:51:54.145Z,6.50
2019-02-19T21:54:21.477Z,6.40
2019-02-19T21:56:54.388Z,6.40
2019-02-19T21:59:24.107Z,6.30
2019-02-19T22:01:53.805Z,6.30
2019-02-19T22:04:23.526Z,6.30
2019-02-19T22:06:53.198Z,6.40
2019-02-19T22:09:22.921Z,6.40
2019-02-19T22:11:52.626Z,6.30
2019-02-19T22:14:22.271Z,6.20
2019-02-19T22:16:52.118Z,6.20
2019-02-19T22:19:21.812Z,6.10
2019-02-19T22:22:03.658Z,6.00
2019-02-19T22:24:37.778Z,6.00
2019-02-19T22:27:08.413Z,6.00
2019-02-19T22:29:39.242Z,6.00
2019-02-19T22:32:09.759Z,6.10
2019-02-19T22:34:39.475Z,6.10
2019-02-19T22:37:09.274Z,6.20
2019-02-19T22:39:38.953Z,6.20
2019-02-19T22:42:08.619Z,6.40
2019-02-19T22:44:38.357Z,6.60
2019-02-19T22:47:08.107Z,6.60
2019-02-19T22:49:37.818Z,6.50
2019-02-19T22:52:12.574Z,6.40
2019-02-19T22:54:49.299Z,6.30
2019-02-19T22:57:19.066Z,6.30
2019-02-19T22:59:48.867Z,6.30
2019-02-19T23:02:21.575Z,6.30
2019-02-19T23:04:51.386Z,6.50
2019-02-19T23:07:21.079Z,6.50
2019-02-19T23:09:51.413Z,6.60
2019-02-19T23:12:21.168Z,6.60
2019-02-19T23:14:50.999Z,6.60
2019-02-19T23:17:20.710Z,6.60
2019-02-19T23:19:51.415Z,6.70
2019-02-19T23:22:21.856Z,6.70
2019-02-19T23:24:51.918Z,6.80
2019-02-19T23:27:21.811Z,6.80
2019-02-19T23:29:51.616Z,6.80
2019-02-19T23:32:21.333Z,6.80
2019-02-19T23:35:09.958Z,6.70
2019-02-19T23:37:39.642Z,6.60
2019-02-19T23:40:09.428Z,6.60
2019-02-19T23:42:39.140Z,6.60
2019-02-19T23:45:08.924Z,6.70
2019-02-19T23:47:38.594Z,6.70
2019-02-19T23:50:08.341Z,6.70
2019-02-19T23:52:38.085Z,6.70
2019-02-19T23:55:07.918Z,6.80
2019-02-19T23:57:37.615Z,6.70
